createdAt,value
2018-06-19T00:01:24.785Z,18.50
2018-06-19T00:03:56.585Z,18.30
2018-06-19T00:09:02.676Z,18.20
2018-06-19T00:11:34.421Z,18.10
2018-06-19T00:14:05.989Z,18.10
2018-06-19T00:19:10.814Z,18.00
2018-06-19T00:21:51.722Z,18.00
2018-06-19T00:24:23.985Z,18.00
2018-06-19T00:26:57.110Z,17.90
2018-06-19T00:29:28.617Z,17.80
2018-06-19T00:34:34.229Z,17.60
2018-06-19T00:37:06.806Z,17.60
2018-06-19T00:39:39.281Z,17.60
2018-06-19T00:42:10.964Z,17.60
2018-06-19T00:44:45.181Z,17.60
2018-06-19T00:47:16.961Z,17.60
2018-06-19T00:49:48.957Z,17.70
2018-06-19T00:52:20.503Z,17.70
2018-06-19T00:54:53.355Z,17.80
2018-06-19T00:57:24.883Z,17.80
2018-06-19T00:59:57.207Z,17.90
2018-06-19T01:02:29.281Z,17.90
2018-06-19T01:05:02.679Z,17.70
2018-06-19T01:07:35.996Z,17.50
2018-06-19T01:10:07.404Z,17.30
2018-06-19T01:12:39.908Z,17.20
2018-06-19T01:17:47.505Z,17.00
2018-06-19T01:20:23.603Z,16.90
2018-06-19T01:22:57.409Z,16.70
2018-06-19T01:28:00.170Z,16.60
2018-06-19T01:30:31.215Z,16.50
2018-06-19T01:33:02.713Z,16.60
2018-06-19T01:35:36.316Z,16.50
2018-06-19T01:38:08.665Z,16.50
2018-06-19T01:40:40.085Z,16.50
2018-06-19T01:43:12.746Z,16.60
2018-06-19T01:48:17.399Z,16.70
2018-06-19T01:50:49.881Z,16.80
2018-06-19T01:53:22.028Z,16.80
2018-06-19T01:55:54.702Z,16.80
2018-06-19T01:58:26.935Z,16.90
2018-06-19T02:00:58.725Z,16.90
2018-06-19T02:03:30.845Z,16.90
2018-06-19T02:06:03.202Z,16.80
2018-06-19T02:08:34.492Z,16.80
2018-06-19T02:11:06.020Z,16.70
2018-06-19T02:13:38.147Z,16.80
2018-06-19T02:18:43.920Z,16.60
2018-06-19T02:21:15.471Z,16.50
2018-06-19T02:23:47.320Z,16.50
2018-06-19T02:26:19.500Z,16.40
2018-06-19T02:28:51.057Z,16.40
2018-06-19T02:31:23.658Z,16.30
2018-06-19T02:33:55.295Z,16.30
2018-06-19T02:36:26.729Z,16.30
2018-06-19T02:38:59.253Z,16.30
2018-06-19T02:41:31.568Z,16.40
2018-06-19T02:46:34.720Z,16.40
2018-06-19T02:49:09.023Z,16.40
2018-06-19T02:51:40.455Z,16.30
2018-06-19T02:54:12.517Z,16.30
2018-06-19T02:59:16.076Z,16.30
2018-06-19T03:01:48.242Z,16.30
2018-06-19T03:04:20.059Z,16.30
2018-06-19T03:06:51.251Z,16.40
2018-06-19T03:09:24.162Z,16.40
2018-06-19T03:11:56.265Z,16.40
2018-06-19T03:16:59.939Z,16.40
2018-06-19T03:19:34.925Z,16.40
2018-06-19T03:22:06.529Z,16.40
2018-06-19T03:24:41.042Z,16.40
2018-06-19T03:27:12.602Z,16.40
2018-06-19T03:29:44.156Z,16.30
2018-06-19T03:32:16.151Z,16.30
2018-06-19T03:34:48.038Z,16.20
2018-06-19T03:39:52.117Z,16.20
2018-06-19T03:42:24.459Z,16.10
2018-06-19T03:44:57.170Z,16.10
2018-06-19T03:47:29.402Z,16.20
2018-06-19T03:50:00.412Z,16.20
2018-06-19T03:52:31.299Z,16.30
2018-06-19T03:55:02.388Z,16.30
2018-06-19T03:57:33.798Z,16.30
2018-06-19T04:00:04.933Z,16.40
2018-06-19T04:02:36.025Z,16.40
2018-06-19T04:05:06.988Z,16.40
2018-06-19T04:07:37.902Z,16.40
2018-06-19T04:10:08.929Z,16.30
2018-06-19T04:12:41.107Z,16.20
2018-06-19T04:15:12.409Z,16.20
2018-06-19T04:17:43.512Z,16.30
2018-06-19T04:20:15.036Z,16.30
2018-06-19T04:22:46.209Z,16.30
2018-06-19T04:27:47.799Z,16.40
2018-06-19T04:30:18.783Z,16.50
2018-06-19T04:32:49.995Z,16.60
2018-06-19T04:35:22.562Z,16.70
2018-06-19T04:37:53.894Z,16.80
2018-06-19T04:40:25.985Z,16.90
2018-06-19T04:42:57.340Z,17.00
2018-06-19T04:45:29.105Z,16.90
2018-06-19T04:48:01.355Z,17.00
2018-06-19T04:50:33.227Z,17.00
2018-06-19T04:53:05.552Z,17.10
2018-06-19T04:55:37.006Z,17.10
2018-06-19T04:58:08.269Z,17.20
2018-06-19T05:00:39.168Z,17.30
2018-06-19T05:03:10.569Z,17.40
2018-06-19T05:05:41.655Z,17.50
2018-06-19T05:08:12.525Z,17.60
2018-06-19T05:10:44.241Z,17.70
2018-06-19T05:13:15.225Z,17.90
2018-06-19T05:15:46.589Z,18.00
2018-06-19T05:18:19.397Z,18.20
2018-06-19T05:20:50.592Z,18.40
2018-06-19T05:23:23.405Z,18.50
2018-06-19T05:25:54.532Z,18.70
2018-06-19T05:28:25.663Z,18.80
2018-06-19T05:30:56.878Z,19.00
2018-06-19T05:33:28.693Z,19.20
2018-06-19T05:36:01.059Z,19.40
2018-06-19T05:38:33.192Z,19.60
2018-06-19T05:41:04.325Z,19.70
2018-06-19T05:43:35.811Z,19.90
2018-06-19T05:46:07.208Z,20.00
2018-06-19T05:48:38.383Z,20.20
2018-06-19T05:51:10.180Z,20.30
2018-06-19T05:53:41.145Z,20.40
2018-06-19T05:56:12.556Z,20.50
2018-06-19T05:58:44.815Z,20.70
2018-06-19T06:01:15.839Z,20.90
2018-06-19T06:03:47.235Z,21.00
2018-06-19T06:06:18.943Z,21.10
2018-06-19T06:08:50.165Z,21.30
2018-06-19T06:11:21.454Z,21.40
2018-06-19T06:13:52.538Z,21.60
2018-06-19T06:16:24.188Z,21.80
2018-06-19T06:18:55.337Z,22.00
2018-06-19T06:21:26.542Z,22.10
2018-06-19T06:23:57.664Z,22.40
2018-06-19T06:26:28.859Z,22.60
2018-06-19T06:29:00.539Z,22.90
2018-06-19T06:31:31.891Z,23.30
2018-06-19T06:34:04.191Z,23.80
2018-06-19T06:36:35.589Z,24.30
2018-06-19T06:39:11.055Z,25.00
2018-06-19T06:41:43.277Z,25.60
2018-06-19T06:44:15.196Z,26.00
2018-06-19T06:46:47.048Z,26.30
2018-06-19T06:49:19.349Z,26.50
2018-06-19T06:51:50.669Z,26.70
2018-06-19T06:54:23.099Z,27.00
2018-06-19T06:56:58.659Z,27.10
2018-06-19T06:59:30.709Z,27.30
2018-06-19T07:02:02.368Z,27.50
2018-06-19T07:04:34.699Z,27.50
2018-06-19T07:07:06.322Z,27.70
2018-06-19T07:09:38.492Z,27.50
2018-06-19T07:12:09.611Z,27.80
2018-06-19T07:17:11.712Z,28.20
2018-06-19T07:19:42.834Z,28.30
2018-06-19T07:22:14.340Z,28.70
2018-06-19T07:24:46.188Z,28.90
2018-06-19T07:27:17.861Z,29.10
2018-06-19T07:29:50.481Z,29.40
2018-06-19T07:32:22.156Z,29.60
2018-06-19T07:34:54.301Z,29.80
2018-06-19T07:37:26.308Z,29.80
2018-06-19T07:39:58.675Z,29.90
2018-06-19T07:42:30.039Z,30.10
2018-06-19T07:45:01.576Z,30.30
2018-06-19T07:47:34.675Z,30.50
2018-06-19T07:52:39.386Z,30.70
2018-06-19T07:55:10.674Z,30.70
2018-06-19T07:57:41.930Z,30.60
2018-06-19T08:00:13.657Z,30.70
2018-06-19T08:02:44.986Z,30.80
2018-06-19T08:05:16.941Z,30.70
2018-06-19T08:07:50.090Z,30.50
2018-06-19T08:10:23.028Z,30.90
2018-06-19T08:12:54.346Z,30.90
2018-06-19T08:15:28.690Z,31.10
2018-06-19T08:18:00.566Z,31.30
2018-06-19T08:20:32.494Z,31.00
2018-06-19T08:23:04.360Z,30.90
2018-06-19T08:25:35.716Z,30.90
2018-06-19T08:28:06.945Z,31.30
2018-06-19T08:30:38.449Z,31.70
2018-06-19T08:33:12.058Z,31.90
2018-06-19T08:35:44.489Z,32.30
2018-06-19T08:38:19.269Z,31.90
2018-06-19T08:40:51.156Z,32.20
2018-06-19T08:43:23.428Z,32.10
2018-06-19T08:45:56.658Z,31.80
2018-06-19T08:48:28.329Z,31.90
2018-06-19T08:50:59.640Z,32.00
2018-06-19T08:53:32.209Z,32.20
2018-06-19T08:56:07.222Z,32.20
2018-06-19T08:58:40.855Z,32.50
2018-06-19T09:01:12.043Z,32.80
2018-06-19T09:06:17.008Z,33.00
2018-06-19T09:08:51.122Z,33.10
2018-06-19T09:11:24.323Z,32.80
2018-06-19T09:13:55.667Z,32.70
2018-06-19T09:16:26.786Z,32.90
2018-06-19T09:18:58.588Z,32.20
2018-06-19T09:21:30.077Z,32.40
2018-06-19T09:24:07.832Z,32.80
2018-06-19T09:26:40.064Z,33.30
2018-06-19T09:29:11.241Z,33.40
2018-06-19T09:31:43.317Z,33.40
2018-06-19T09:34:14.612Z,33.70
2018-06-19T09:36:46.790Z,33.90
2018-06-19T09:39:21.710Z,33.40
2018-06-19T09:41:53.167Z,33.80
2018-06-19T09:44:25.010Z,33.30
2018-06-19T09:47:02.179Z,33.40
2018-06-19T09:49:33.804Z,33.30
2018-06-19T09:54:41.415Z,33.10
2018-06-19T09:59:44.640Z,32.90
2018-06-19T10:02:17.123Z,33.70
2018-06-19T10:04:48.559Z,34.10
2018-06-19T10:07:22.775Z,33.40
2018-06-19T10:09:54.757Z,32.70
2018-06-19T10:14:56.608Z,33.50
2018-06-19T10:17:28.591Z,33.00
2018-06-19T10:20:00.000Z,33.70
2018-06-19T10:22:31.838Z,34.20
2018-06-19T10:25:03.591Z,34.20
2018-06-19T10:27:35.017Z,34.00
2018-06-19T10:30:08.068Z,34.20
2018-06-19T10:32:42.416Z,34.50
2018-06-19T10:35:14.861Z,34.40
2018-06-19T10:37:46.594Z,34.10
2018-06-19T10:40:17.868Z,34.30
2018-06-19T10:42:49.192Z,34.30
2018-06-19T10:45:20.339Z,34.70
2018-06-19T10:47:52.590Z,34.90
2018-06-19T10:50:24.012Z,35.10
2018-06-19T10:52:55.809Z,34.10
2018-06-19T10:55:27.974Z,33.50
2018-06-19T10:58:00.141Z,34.00
2018-06-19T11:03:04.448Z,34.60
2018-06-19T11:05:36.438Z,34.50
2018-06-19T11:08:08.496Z,34.50
2018-06-19T11:10:39.731Z,34.30
2018-06-19T11:13:11.199Z,34.40
2018-06-19T11:15:42.213Z,34.60
2018-06-19T11:18:13.268Z,34.70
2018-06-19T11:20:44.477Z,35.30
2018-06-19T11:23:16.551Z,35.30
2018-06-19T11:25:47.917Z,35.20
2018-06-19T11:28:19.477Z,34.30
2018-06-19T11:30:50.827Z,34.60
2018-06-19T11:33:22.949Z,34.50
2018-06-19T11:35:54.193Z,34.60
2018-06-19T11:38:27.305Z,34.40
2018-06-19T11:40:59.303Z,34.90
2018-06-19T11:43:30.853Z,34.80
2018-06-19T11:46:02.101Z,34.40
2018-06-19T11:48:33.855Z,34.40
2018-06-19T11:51:06.351Z,34.70
2018-06-19T11:53:42.092Z,35.00
2018-06-19T11:56:14.828Z,34.90
2018-06-19T11:58:46.902Z,35.20
2018-06-19T12:01:19.001Z,35.40
2018-06-19T12:03:50.950Z,35.70
2018-06-19T12:06:23.009Z,35.40
2018-06-19T12:11:29.550Z,35.00
2018-06-19T12:14:01.246Z,34.30
2018-06-19T12:16:32.932Z,34.00
2018-06-19T12:19:04.230Z,34.20
2018-06-19T12:21:35.545Z,34.30
2018-06-19T12:24:07.783Z,33.90
2018-06-19T12:26:39.707Z,34.30
2018-06-19T12:29:12.647Z,34.90
2018-06-19T12:31:44.077Z,34.80
2018-06-19T12:34:17.797Z,34.50
2018-06-19T12:36:49.139Z,34.80
2018-06-19T12:39:20.362Z,34.70
2018-06-19T12:41:51.949Z,33.70
2018-06-19T12:44:25.072Z,33.30
2018-06-19T12:46:59.404Z,33.20
2018-06-19T12:51:03.295Z,33.30
2018-06-19T12:53:54.525Z,33.70
2018-06-19T12:56:26.197Z,34.20
2018-06-19T12:58:58.115Z,34.60
2018-06-19T13:01:29.751Z,34.60
2018-06-19T13:04:17.519Z,35.00
2018-06-19T13:06:49.245Z,35.00
2018-06-19T13:09:21.541Z,35.00
2018-06-19T13:11:55.509Z,34.10
2018-06-19T13:14:40.298Z,33.70
2018-06-19T13:17:27.654Z,34.00
2018-06-19T13:20:15.535Z,34.50
2018-06-19T13:22:47.584Z,34.60
2018-06-19T13:25:19.102Z,34.50
2018-06-19T13:27:51.599Z,34.50
2018-06-19T13:30:39.139Z,34.30
2018-06-19T13:33:10.748Z,34.20
2018-06-19T13:35:43.634Z,34.40
2018-06-19T13:38:16.242Z,34.00
2018-06-19T13:41:18.649Z,33.30
2018-06-19T13:44:09.479Z,33.60
2018-06-19T13:46:42.080Z,33.30
2018-06-19T13:49:15.019Z,32.90
2018-06-19T13:51:46.920Z,32.80
2018-06-19T13:54:18.200Z,32.70
2018-06-19T13:57:27.998Z,33.00
2018-06-19T14:00:01.288Z,33.50
2018-06-19T14:02:32.750Z,34.00
2018-06-19T14:05:04.457Z,34.30
2018-06-19T14:07:43.005Z,34.60
2018-06-19T14:10:32.074Z,34.60
2018-06-19T14:13:03.597Z,34.10
2018-06-19T14:15:38.679Z,34.20
2018-06-19T14:18:10.738Z,33.60
2018-06-19T14:20:43.105Z,33.20
2018-06-19T14:23:16.324Z,33.30
2018-06-19T14:25:47.901Z,33.40
2018-06-19T14:28:25.435Z,33.30
2018-06-19T14:30:57.164Z,33.30
2018-06-19T14:33:29.417Z,33.40
2018-06-19T14:36:00.792Z,33.30
2018-06-19T14:38:32.007Z,32.60
2018-06-19T14:41:03.983Z,32.00
2018-06-19T14:43:35.601Z,31.70
2018-06-19T14:46:06.866Z,32.20
2018-06-19T14:48:38.527Z,32.30
2018-06-19T14:51:10.288Z,32.40
2018-06-19T14:53:41.881Z,32.60
2018-06-19T14:56:14.969Z,32.60
2018-06-19T14:58:45.958Z,32.50
2018-06-19T15:01:17.335Z,32.60
2018-06-19T15:03:48.622Z,32.50
2018-06-19T15:06:20.945Z,32.40
2018-06-19T15:08:53.251Z,32.50
2018-06-19T15:11:25.886Z,32.50
2018-06-19T15:13:58.399Z,32.60
2018-06-19T15:16:30.052Z,32.30
2018-06-19T15:19:02.125Z,32.20
2018-06-19T15:21:34.633Z,31.90
2018-06-19T15:24:05.980Z,31.90
2018-06-19T15:26:38.056Z,31.90
2018-06-19T15:29:09.875Z,31.70
2018-06-19T15:31:42.284Z,31.90
2018-06-19T15:34:15.239Z,31.70
2018-06-19T15:36:48.334Z,31.70
2018-06-19T15:39:20.018Z,31.50
2018-06-19T15:41:51.499Z,31.70
2018-06-19T15:44:24.005Z,31.60
2018-06-19T15:46:56.242Z,31.60
2018-06-19T15:49:27.459Z,31.50
2018-06-19T15:52:00.572Z,31.40
2018-06-19T15:54:33.747Z,31.40
2018-06-19T15:57:05.009Z,31.30
2018-06-19T15:59:36.248Z,31.20
2018-06-19T16:02:07.696Z,31.10
2018-06-19T16:04:38.998Z,31.20
2018-06-19T16:07:10.637Z,31.20
2018-06-19T16:09:42.613Z,31.00
2018-06-19T16:12:13.758Z,31.00
2018-06-19T16:14:45.152Z,30.90
2018-06-19T16:17:16.659Z,30.80
2018-06-19T16:19:48.208Z,30.90
2018-06-19T16:22:19.353Z,30.90
2018-06-19T16:24:50.549Z,30.90
2018-06-19T16:27:23.751Z,30.70
2018-06-19T16:29:55.173Z,30.60
2018-06-19T16:32:26.473Z,30.60
2018-06-19T16:34:57.684Z,30.50
2018-06-19T16:37:29.904Z,30.50
2018-06-19T16:40:01.226Z,30.40
2018-06-19T16:42:33.922Z,30.40
2018-06-19T16:45:05.362Z,30.40
2018-06-19T16:47:36.806Z,30.40
2018-06-19T16:50:08.102Z,30.40
2018-06-19T16:52:39.479Z,30.40
2018-06-19T16:55:10.742Z,30.20
2018-06-19T16:57:42.186Z,30.10
2018-06-19T17:00:14.510Z,30.10
2018-06-19T17:02:45.428Z,30.10
2018-06-19T17:05:16.402Z,29.90
2018-06-19T17:07:47.527Z,29.70
2018-06-19T17:10:18.762Z,29.70
2018-06-19T17:12:50.606Z,29.50
2018-06-19T17:15:21.819Z,29.50
2018-06-19T17:17:53.606Z,29.20
2018-06-19T17:22:55.453Z,29.00
2018-06-19T17:25:26.620Z,28.80
2018-06-19T17:27:57.787Z,28.70
2018-06-19T17:30:30.014Z,28.70
2018-06-19T17:33:02.660Z,28.60
2018-06-19T17:35:34.763Z,28.70
2018-06-19T17:38:06.415Z,28.80
2018-06-19T17:40:38.115Z,28.70
2018-06-19T17:43:10.206Z,28.70
2018-06-19T17:45:44.248Z,28.70
2018-06-19T17:48:16.779Z,28.60
2018-06-19T17:50:48.861Z,28.50
2018-06-19T17:53:20.946Z,28.30
2018-06-19T17:55:53.061Z,28.10
2018-06-19T17:58:25.654Z,28.10
2018-06-19T18:00:58.340Z,28.10
2018-06-19T18:03:32.086Z,28.10
2018-06-19T18:06:04.673Z,28.00
2018-06-19T18:08:38.225Z,28.00
2018-06-19T18:11:11.074Z,27.90
2018-06-19T18:13:44.383Z,27.90
2018-06-19T18:16:17.705Z,27.80
2018-06-19T18:18:50.469Z,27.70
2018-06-19T18:21:23.036Z,27.70
2018-06-19T18:23:56.129Z,27.60
2018-06-19T18:26:28.892Z,27.50
2018-06-19T18:29:02.209Z,27.40
2018-06-19T18:31:35.640Z,27.30
2018-06-19T18:34:08.976Z,27.20
2018-06-19T18:39:13.754Z,27.10
2018-06-19T18:41:47.490Z,27.00
2018-06-19T18:44:21.061Z,26.90
2018-06-19T18:46:54.240Z,26.80
2018-06-19T18:49:27.484Z,26.70
2018-06-19T18:52:00.253Z,26.60
2018-06-19T18:54:34.196Z,26.50
2018-06-19T18:57:07.839Z,26.40
2018-06-19T18:59:42.096Z,26.30
2018-06-19T19:02:15.136Z,26.30
2018-06-19T19:04:49.168Z,26.30
2018-06-19T19:07:22.027Z,26.20
2018-06-19T19:12:33.286Z,26.10
2018-06-19T19:15:11.056Z,26.00
2018-06-19T19:20:23.345Z,25.90
2018-06-19T19:22:57.000Z,25.80
2018-06-19T19:25:31.717Z,25.80
2018-06-19T19:29:09.314Z,25.80
2018-06-19T19:31:44.270Z,25.70
2018-06-19T19:34:18.640Z,25.60
2018-06-19T19:36:56.795Z,25.60
2018-06-19T19:39:31.598Z,25.50
2018-06-19T19:42:06.111Z,25.40
2018-06-19T19:44:38.988Z,25.30
2018-06-19T19:50:50.431Z,25.10
2018-06-19T19:53:26.057Z,24.80
2018-06-19T19:56:06.634Z,24.60
2018-06-19T19:58:49.133Z,24.50
2018-06-19T20:01:26.561Z,24.20
2018-06-19T20:03:59.913Z,24.10
2018-06-19T20:06:33.655Z,23.90
2018-06-19T20:09:08.514Z,23.80
2018-06-19T20:14:30.482Z,23.50
2018-06-19T20:17:12.064Z,23.30
2018-06-19T20:19:51.013Z,23.30
2018-06-19T20:22:26.345Z,23.30
2018-06-19T20:25:00.385Z,23.20
2018-06-19T20:27:34.175Z,23.10
2018-06-19T20:32:40.328Z,23.00
2018-06-19T20:35:19.428Z,23.00
2018-06-19T20:40:26.096Z,22.90
2018-06-19T20:43:00.128Z,22.90
2018-06-19T20:45:34.253Z,22.90
2018-06-19T20:48:08.349Z,22.90
2018-06-19T20:50:42.095Z,22.90
2018-06-19T20:53:15.727Z,22.80
2018-06-19T20:55:48.983Z,22.70
2018-06-19T21:00:54.584Z,22.70
2018-06-19T21:06:00.496Z,22.60
2018-06-19T21:08:41.036Z,22.60
2018-06-19T21:11:15.091Z,22.60
2018-06-19T21:13:47.691Z,22.60
2018-06-19T21:16:21.330Z,22.60
2018-06-19T21:18:55.941Z,22.60
2018-06-19T21:21:29.084Z,22.60
2018-06-19T21:24:01.125Z,22.50
2018-06-19T21:29:06.668Z,22.40
2018-06-19T21:31:39.051Z,22.30
2018-06-19T21:34:12.146Z,22.20
2018-06-19T21:36:44.999Z,22.20
2018-06-19T21:41:50.092Z,22.10
2018-06-19T21:44:23.300Z,22.10
2018-06-19T21:46:56.322Z,22.00
2018-06-19T21:49:28.214Z,21.90
2018-06-19T21:52:00.999Z,21.80
2018-06-19T21:57:06.997Z,21.70
2018-06-19T21:59:38.586Z,21.70
2018-06-19T22:02:11.246Z,21.70
2018-06-19T22:04:44.449Z,21.70
2018-06-19T22:07:17.524Z,21.70
2018-06-19T22:09:48.801Z,21.70
2018-06-19T22:12:20.159Z,21.60
2018-06-19T22:14:51.240Z,21.60
2018-06-19T22:17:22.531Z,21.60
2018-06-19T22:19:54.238Z,21.60
2018-06-19T22:22:26.340Z,21.50
2018-06-19T22:24:58.431Z,21.60
2018-06-19T22:27:29.622Z,21.50
2018-06-19T22:30:00.795Z,21.50
2018-06-19T22:32:31.735Z,21.50
2018-06-19T22:35:03.031Z,21.40
2018-06-19T22:37:34.856Z,21.40
2018-06-19T22:40:06.730Z,21.30
2018-06-19T22:42:37.938Z,21.20
2018-06-19T22:45:09.391Z,21.10
2018-06-19T22:47:42.884Z,21.10
2018-06-19T22:50:14.103Z,21.00
2018-06-19T22:55:17.877Z,21.00
2018-06-19T22:57:49.227Z,21.00
2018-06-19T23:00:22.000Z,21.00
2018-06-19T23:02:56.950Z,20.90
2018-06-19T23:05:28.335Z,20.90
2018-06-19T23:07:59.107Z,20.90
2018-06-19T23:10:30.598Z,20.80
2018-06-19T23:13:03.169Z,20.80
2018-06-19T23:15:34.910Z,20.70
2018-06-19T23:18:06.755Z,20.70
2018-06-19T23:20:37.990Z,20.70
2018-06-19T23:23:09.489Z,20.70
2018-06-19T23:28:12.239Z,20.60
2018-06-19T23:30:43.701Z,20.50
2018-06-19T23:33:14.795Z,20.40
2018-06-19T23:35:46.024Z,20.40
2018-06-19T23:38:17.304Z,20.40
2018-06-19T23:40:48.354Z,20.30
2018-06-19T23:43:20.993Z,20.30
2018-06-19T23:45:52.297Z,20.20
2018-06-19T23:48:23.166Z,20.20
2018-06-19T23:50:54.424Z,20.30
2018-06-19T23:53:25.660Z,20.20
2018-06-19T23:58:27.568Z,20.10
